createdAt,value
2019-01-19T00:00:21.259Z,-1.50
2019-01-19T00:01:21.762Z,-1.50
2019-01-19T00:02:22.041Z,-1.50
2019-01-19T00:03:22.154Z,-1.50
2019-01-19T00:04:22.497Z,-1.51
2019-01-19T00:05:22.833Z,-1.51
2019-01-19T00:06:23.370Z,-1.52
2019-01-19T00:07:22.705Z,-1.52
2019-01-19T00:08:24.292Z,-1.53
2019-01-19T00:09:25.077Z,-1.53
2019-01-19T00:10:25.505Z,-1.54
2019-01-19T00:11:25.931Z,-1.54
2019-01-19T00:12:26.288Z,-1.54
2019-01-19T00:13:26.734Z,-1.55
2019-01-19T00:14:27.345Z,-1.56
2019-01-19T00:15:27.657Z,-1.57
2019-01-19T00:16:27.941Z,-1.58
2019-01-19T00:17:28.307Z,-1.58
2019-01-19T00:18:28.918Z,-1.59
2019-01-19T00:19:29.443Z,-1.60
2019-01-19T00:20:29.929Z,-1.61
2019-01-19T00:20:38.423Z,-1.71
2019-01-19T00:21:38.282Z,-1.71
2019-01-19T00:22:39.593Z,-1.71
2019-01-19T00:23:39.974Z,-1.71
2019-01-19T00:24:40.588Z,-1.72
2019-01-19T00:25:41.180Z,-1.72
2019-01-19T00:26:41.816Z,-1.72
2019-01-19T00:27:42.149Z,-1.73
2019-01-19T00:28:42.580Z,-1.74
2019-01-19T00:29:43.126Z,-1.74
2019-01-19T00:30:43.571Z,-1.75
2019-01-19T00:31:43.605Z,-1.76
2019-01-19T00:32:44.105Z,-1.76
2019-01-19T00:33:44.422Z,-1.77
2019-01-19T00:34:44.788Z,-1.78
2019-01-19T00:35:45.398Z,-1.80
2019-01-19T00:36:46.052Z,-1.81
2019-01-19T00:37:45.799Z,-1.83
2019-01-19T00:38:46.215Z,-1.84
2019-01-19T00:39:46.635Z,-1.85
2019-01-19T00:40:47.397Z,-1.86
2019-01-19T00:41:47.748Z,-1.87
2019-01-19T00:42:47.865Z,-1.89
2019-01-19T00:43:48.651Z,-1.90
2019-01-19T00:44:49.222Z,-1.91
2019-01-19T00:45:48.392Z,-1.92
2019-01-19T00:46:49.901Z,-1.93
2019-01-19T00:47:49.258Z,-1.94
2019-01-19T00:48:49.374Z,-1.95
2019-01-19T00:49:50.145Z,-1.96
2019-01-19T00:50:50.315Z,-1.97
2019-01-19T00:51:52.254Z,-1.97
2019-01-19T00:52:53.225Z,-1.98
2019-01-19T00:53:53.482Z,-1.98
2019-01-19T00:54:52.628Z,-1.99
2019-01-19T00:55:54.666Z,-1.99
2019-01-19T00:56:54.725Z,-2.00
2019-01-19T00:57:54.512Z,-2.00
2019-01-19T00:58:56.602Z,-2.01
2019-01-19T00:59:55.662Z,-2.01
2019-01-19T01:00:57.227Z,-2.02
2019-01-19T01:01:57.634Z,-2.03
2019-01-19T01:02:58.144Z,-2.04
2019-01-19T01:03:58.799Z,-2.04
2019-01-19T01:04:58.177Z,-2.05
2019-01-19T01:05:59.698Z,-2.05
2019-01-19T01:07:00.273Z,-2.06
2019-01-19T01:08:00.982Z,-2.06
2019-01-19T01:09:01.631Z,-2.07
2019-01-19T01:10:02.202Z,-2.07
2019-01-19T01:11:03.003Z,-2.08
2019-01-19T01:12:03.548Z,-2.08
2019-01-19T01:12:17.576Z,-2.13
2019-01-19T01:13:19.002Z,-2.13
2019-01-19T01:14:19.155Z,-2.13
2019-01-19T01:15:19.785Z,-2.13
2019-01-19T01:16:20.374Z,-2.13
2019-01-19T01:17:21.179Z,-2.13
2019-01-19T01:18:21.635Z,-2.13
2019-01-19T01:19:22.197Z,-2.13
2019-01-19T01:20:22.633Z,-2.12
2019-01-19T01:21:23.143Z,-2.12
2019-01-19T01:22:23.786Z,-2.12
2019-01-19T01:23:23.821Z,-2.12
2019-01-19T01:24:24.389Z,-2.12
2019-01-19T01:25:24.794Z,-2.12
2019-01-19T01:26:25.432Z,-2.12
2019-01-19T01:27:25.899Z,-2.12
2019-01-19T01:28:26.525Z,-2.12
2019-01-19T01:29:27.302Z,-2.11
2019-01-19T01:30:27.742Z,-2.11
2019-01-19T01:31:28.338Z,-2.11
2019-01-19T01:32:28.860Z,-2.11
2019-01-19T01:33:29.377Z,-2.11
2019-01-19T01:34:29.936Z,-2.12
2019-01-19T01:35:32.866Z,-2.12
2019-01-19T01:36:30.508Z,-2.12
2019-01-19T01:37:32.075Z,-2.12
2019-01-19T01:38:32.612Z,-2.13
2019-01-19T01:39:33.398Z,-2.13
2019-01-19T01:40:34.071Z,-2.13
2019-01-19T01:41:34.623Z,-2.13
2019-01-19T01:42:35.277Z,-2.13
2019-01-19T01:43:35.782Z,-2.13
2019-01-19T01:44:36.702Z,-2.14
2019-01-19T01:45:37.191Z,-2.14
2019-01-19T01:46:37.725Z,-2.14
2019-01-19T01:47:38.400Z,-2.14
2019-01-19T01:48:38.760Z,-2.14
2019-01-19T01:49:39.293Z,-2.15
2019-01-19T01:50:39.788Z,-2.15
2019-01-19T01:51:40.232Z,-2.16
2019-01-19T01:52:40.821Z,-2.16
2019-01-19T01:52:50.852Z,-2.23
2019-01-19T01:53:52.332Z,-2.24
2019-01-19T01:54:52.797Z,-2.24
2019-01-19T01:55:53.383Z,-2.24
2019-01-19T01:56:54.053Z,-2.24
2019-01-19T01:57:54.683Z,-2.24
2019-01-19T01:58:55.471Z,-2.24
2019-01-19T01:59:56.054Z,-2.24
2019-01-19T02:00:56.588Z,-2.25
2019-01-19T02:01:57.168Z,-2.25
2019-01-19T02:02:57.996Z,-2.25
2019-01-19T02:03:58.550Z,-2.25
2019-01-19T02:04:59.006Z,-2.26
2019-01-19T02:05:59.708Z,-2.26
2019-01-19T02:07:00.166Z,-2.27
2019-01-19T02:08:00.680Z,-2.27
2019-01-19T02:09:01.135Z,-2.27
2019-01-19T02:10:01.692Z,-2.28
2019-01-19T02:11:02.396Z,-2.28
2019-01-19T02:12:02.829Z,-2.28
2019-01-19T02:13:03.454Z,-2.28
2019-01-19T02:14:03.900Z,-2.28
2019-01-19T02:15:04.309Z,-2.29
2019-01-19T02:16:04.962Z,-2.29
2019-01-19T02:17:05.447Z,-2.29
2019-01-19T02:18:06.052Z,-2.30
2019-01-19T02:19:06.562Z,-2.30
2019-01-19T02:20:07.037Z,-2.31
2019-01-19T02:21:07.659Z,-2.31
2019-01-19T02:22:08.195Z,-2.31
2019-01-19T02:23:08.756Z,-2.31
2019-01-19T02:24:09.336Z,-2.32
2019-01-19T02:25:09.909Z,-2.32
2019-01-19T02:26:10.561Z,-2.33
2019-01-19T02:27:11.102Z,-2.33
2019-01-19T02:28:10.633Z,-2.34
2019-01-19T02:29:12.205Z,-2.35
2019-01-19T02:30:12.734Z,-2.35
2019-01-19T02:31:13.232Z,-2.35
2019-01-19T02:32:13.841Z,-2.36
2019-01-19T02:33:14.488Z,-2.36
2019-01-19T02:34:15.128Z,-2.37
2019-01-19T02:35:15.694Z,-2.37
2019-01-19T02:36:16.369Z,-2.37
2019-01-19T02:37:16.831Z,-2.38
2019-01-19T02:37:26.746Z,-2.41
2019-01-19T02:38:27.696Z,-2.41
2019-01-19T02:39:28.212Z,-2.41
2019-01-19T02:40:28.660Z,-2.41
2019-01-19T02:41:29.135Z,-2.42
2019-01-19T02:42:29.663Z,-2.42
2019-01-19T02:43:30.241Z,-2.43
2019-01-19T02:44:30.669Z,-2.43
2019-01-19T02:45:31.183Z,-2.44
2019-01-19T02:46:31.624Z,-2.44
2019-01-19T02:47:32.224Z,-2.45
2019-01-19T02:48:32.738Z,-2.45
2019-01-19T02:49:33.284Z,-2.45
2019-01-19T02:50:33.725Z,-2.46
2019-01-19T02:51:34.274Z,-2.46
2019-01-19T02:52:34.778Z,-2.47
2019-01-19T02:53:35.360Z,-2.48
2019-01-19T02:54:35.901Z,-2.49
2019-01-19T02:55:36.838Z,-2.50
2019-01-19T02:56:37.460Z,-2.51
2019-01-19T02:57:38.141Z,-2.51
2019-01-19T02:58:38.981Z,-2.52
2019-01-19T02:59:39.529Z,-2.52
2019-01-19T03:00:40.226Z,-2.53
2019-01-19T03:01:40.791Z,-2.53
2019-01-19T03:02:41.375Z,-2.54
2019-01-19T03:03:41.809Z,-2.54
2019-01-19T03:04:42.391Z,-2.54
2019-01-19T03:05:42.957Z,-2.55
2019-01-19T03:06:43.620Z,-2.55
2019-01-19T03:07:44.275Z,-2.55
2019-01-19T03:08:44.918Z,-2.56
2019-01-19T03:09:45.513Z,-2.56
2019-01-19T03:10:47.167Z,-2.56
2019-01-19T03:11:46.660Z,-2.57
2019-01-19T03:12:47.101Z,-2.57
2019-01-19T03:13:47.582Z,-2.57
2019-01-19T03:14:48.194Z,-2.57
2019-01-19T03:15:48.823Z,-2.57
2019-01-19T03:16:49.523Z,-2.57
2019-01-19T03:17:50.143Z,-2.57
2019-01-19T03:18:50.670Z,-2.58
2019-01-19T03:19:51.100Z,-2.58
2019-01-19T03:20:01.423Z,-2.60
2019-01-19T03:21:02.810Z,-2.60
2019-01-19T03:22:02.208Z,-2.60
2019-01-19T03:23:03.990Z,-2.60
2019-01-19T03:24:04.515Z,-2.60
2019-01-19T03:25:04.960Z,-2.60
2019-01-19T03:26:05.520Z,-2.61
2019-01-19T03:27:06.004Z,-2.61
2019-01-19T03:28:06.474Z,-2.62
2019-01-19T03:29:06.916Z,-2.63
2019-01-19T03:30:07.273Z,-2.64
2019-01-19T03:31:07.766Z,-2.66
2019-01-19T03:32:08.147Z,-2.67
2019-01-19T03:33:08.705Z,-2.68
2019-01-19T03:34:09.270Z,-2.69
2019-01-19T03:35:09.666Z,-2.70
2019-01-19T03:36:10.321Z,-2.70
2019-01-19T03:37:10.863Z,-2.71
2019-01-19T03:38:11.446Z,-2.71
2019-01-19T03:39:12.189Z,-2.72
2019-01-19T03:40:12.959Z,-2.73
2019-01-19T03:41:13.516Z,-2.74
2019-01-19T03:42:14.080Z,-2.74
2019-01-19T03:43:14.757Z,-2.75
2019-01-19T03:44:15.248Z,-2.75
2019-01-19T03:45:15.741Z,-2.75
2019-01-19T03:46:16.406Z,-2.76
2019-01-19T03:47:17.191Z,-2.76
2019-01-19T03:48:17.779Z,-2.76
2019-01-19T03:49:18.675Z,-2.77
2019-01-19T03:50:19.165Z,-2.77
2019-01-19T03:51:19.624Z,-2.77
2019-01-19T03:52:20.131Z,-2.77
2019-01-19T03:53:20.514Z,-2.77
2019-01-19T03:54:21.204Z,-2.78
2019-01-19T03:55:21.680Z,-2.79
2019-01-19T03:56:22.185Z,-2.80
2019-01-19T03:57:22.745Z,-2.81
2019-01-19T03:58:23.262Z,-2.81
2019-01-19T03:59:23.809Z,-2.82
2019-01-19T04:00:24.446Z,-2.82
2019-01-19T04:01:25.090Z,-2.83
2019-01-19T04:02:25.590Z,-2.83
2019-01-19T04:02:35.593Z,-2.87
2019-01-19T04:03:35.987Z,-2.87
2019-01-19T04:04:37.557Z,-2.87
2019-01-19T04:05:38.445Z,-2.87
2019-01-19T04:06:39.195Z,-2.87
2019-01-19T04:07:39.747Z,-2.87
2019-01-19T04:08:40.264Z,-2.88
2019-01-19T04:09:41.795Z,-2.88
2019-01-19T04:10:41.743Z,-2.88
2019-01-19T04:11:42.217Z,-2.88
2019-01-19T04:12:42.718Z,-2.88
2019-01-19T04:13:43.337Z,-2.88
2019-01-19T04:14:44.059Z,-2.89
2019-01-19T04:15:43.577Z,-2.89
2019-01-19T04:16:45.241Z,-2.89
2019-01-19T04:17:45.986Z,-2.89
2019-01-19T04:18:46.496Z,-2.89
2019-01-19T04:19:45.564Z,-2.89
2019-01-19T04:20:47.134Z,-2.90
2019-01-19T04:21:47.645Z,-2.90
2019-01-19T04:22:48.125Z,-2.90
2019-01-19T04:23:47.757Z,-2.90
2019-01-19T04:24:49.164Z,-2.90
2019-01-19T04:25:49.747Z,-2.90
2019-01-19T04:26:50.242Z,-2.90
2019-01-19T04:27:50.799Z,-2.90
2019-01-19T04:28:51.367Z,-2.90
2019-01-19T04:29:51.807Z,-2.91
2019-01-19T04:30:52.474Z,-2.91
2019-01-19T04:31:53.192Z,-2.91
2019-01-19T04:32:53.726Z,-2.91
2019-01-19T04:33:54.392Z,-2.91
2019-01-19T04:34:54.869Z,-2.91
2019-01-19T04:35:55.714Z,-2.91
2019-01-19T04:36:56.208Z,-2.91
2019-01-19T04:37:56.927Z,-2.91
2019-01-19T04:38:57.445Z,-2.91
2019-01-19T04:39:58.026Z,-2.90
2019-01-19T04:40:58.689Z,-2.90
2019-01-19T04:41:59.480Z,-2.90
2019-01-19T04:43:00.040Z,-2.90
2019-01-19T04:44:00.588Z,-2.90
2019-01-19T04:45:01.240Z,-2.90
2019-01-19T04:46:02.023Z,-2.90
2019-01-19T04:47:02.587Z,-2.90
2019-01-19T04:47:12.611Z,-2.91
2019-01-19T04:48:13.119Z,-2.91
2019-01-19T04:49:13.570Z,-2.91
2019-01-19T04:50:14.009Z,-2.91
2019-01-19T04:51:14.737Z,-2.91
2019-01-19T04:52:15.268Z,-2.91
2019-01-19T04:53:15.828Z,-2.91
2019-01-19T04:54:16.230Z,-2.91
2019-01-19T04:55:16.749Z,-2.92
2019-01-19T04:56:17.365Z,-2.92
2019-01-19T04:57:17.942Z,-2.92
2019-01-19T04:58:18.444Z,-2.93
2019-01-19T04:59:18.890Z,-2.93
2019-01-19T05:00:19.433Z,-2.94
2019-01-19T05:01:20.003Z,-2.95
2019-01-19T05:02:20.950Z,-2.95
2019-01-19T05:03:21.426Z,-2.96
2019-01-19T05:04:21.845Z,-2.96
2019-01-19T05:05:22.298Z,-2.97
2019-01-19T05:06:30.205Z,-2.97
2019-01-19T05:07:22.367Z,-2.98
2019-01-19T05:08:23.859Z,-2.98
2019-01-19T05:09:24.437Z,-2.99
2019-01-19T05:10:25.027Z,-3.00
2019-01-19T05:11:25.556Z,-3.02
2019-01-19T05:12:26.148Z,-3.03
2019-01-19T05:13:26.683Z,-3.04
2019-01-19T05:14:27.338Z,-3.06
2019-01-19T05:15:28.161Z,-3.07
2019-01-19T05:16:28.700Z,-3.08
2019-01-19T05:17:29.173Z,-3.10
2019-01-19T05:18:29.645Z,-3.11
2019-01-19T05:19:30.052Z,-3.13
2019-01-19T05:20:30.471Z,-3.14
2019-01-19T05:21:30.890Z,-3.15
2019-01-19T05:22:31.461Z,-3.16
2019-01-19T05:23:32.080Z,-3.17
2019-01-19T05:24:32.433Z,-3.18
2019-01-19T05:25:32.918Z,-3.19
2019-01-19T05:26:33.452Z,-3.19
2019-01-19T05:27:33.782Z,-3.20
2019-01-19T05:28:34.163Z,-3.21
2019-01-19T05:28:44.266Z,-3.31
2019-01-19T05:29:45.570Z,-3.31
2019-01-19T05:30:46.318Z,-3.31
2019-01-19T05:31:46.872Z,-3.31
2019-01-19T05:32:47.624Z,-3.31
2019-01-19T05:33:48.207Z,-3.31
2019-01-19T05:34:48.930Z,-3.32
2019-01-19T05:35:49.654Z,-3.32
2019-01-19T05:36:50.131Z,-3.32
2019-01-19T05:37:50.469Z,-3.32
2019-01-19T05:38:50.918Z,-3.33
2019-01-19T05:39:50.319Z,-3.33
2019-01-19T05:40:51.898Z,-3.34
2019-01-19T05:41:52.351Z,-3.34
2019-01-19T05:42:52.709Z,-3.35
2019-01-19T05:43:53.086Z,-3.35
2019-01-19T05:44:53.676Z,-3.36
2019-01-19T05:45:54.125Z,-3.37
2019-01-19T05:46:55.769Z,-3.38
2019-01-19T05:47:55.124Z,-3.39
2019-01-19T05:48:55.493Z,-3.41
2019-01-19T05:49:56.075Z,-3.42
2019-01-19T05:50:56.369Z,-3.43
2019-01-19T05:51:56.948Z,-3.45
2019-01-19T05:52:56.202Z,-3.46
2019-01-19T05:53:57.540Z,-3.47
2019-01-19T05:54:58.016Z,-3.47
2019-01-19T05:55:58.380Z,-3.48
2019-01-19T05:56:58.820Z,-3.49
2019-01-19T05:57:59.295Z,-3.50
2019-01-19T05:59:00.022Z,-3.51
2019-01-19T06:00:00.516Z,-3.51
2019-01-19T06:01:00.912Z,-3.52
2019-01-19T06:02:01.472Z,-3.54
2019-01-19T06:03:01.794Z,-3.55
2019-01-19T06:04:02.296Z,-3.56
2019-01-19T06:05:02.788Z,-3.58
2019-01-19T06:06:03.291Z,-3.59
2019-01-19T06:07:03.802Z,-3.60
2019-01-19T06:08:04.276Z,-3.60
2019-01-19T06:09:04.680Z,-3.61
2019-01-19T06:10:05.284Z,-3.61
2019-01-19T06:11:05.677Z,-3.61
2019-01-19T06:12:06.367Z,-3.61
2019-01-19T06:13:06.916Z,-3.62
2019-01-19T06:13:16.935Z,-3.62
2019-01-19T06:14:17.784Z,-3.62
2019-01-19T06:15:17.891Z,-3.62
2019-01-19T06:16:18.370Z,-3.62
2019-01-19T06:17:19.090Z,-3.63
2019-01-19T06:18:19.425Z,-3.63
2019-01-19T06:19:19.444Z,-3.63
2019-01-19T06:20:20.013Z,-3.64
2019-01-19T06:21:20.546Z,-3.65
2019-01-19T06:22:21.109Z,-3.66
2019-01-19T06:23:21.818Z,-3.67
2019-01-19T06:24:22.183Z,-3.67
2019-01-19T06:25:22.796Z,-3.68
2019-01-19T06:26:23.391Z,-3.68
2019-01-19T06:27:24.114Z,-3.68
2019-01-19T06:28:24.339Z,-3.68
2019-01-19T06:29:24.886Z,-3.69
2019-01-19T06:30:25.373Z,-3.69
2019-01-19T06:31:25.841Z,-3.69
2019-01-19T06:32:26.389Z,-3.70
2019-01-19T06:33:27.108Z,-3.71
2019-01-19T06:34:27.583Z,-3.71
2019-01-19T06:35:28.026Z,-3.72
2019-01-19T06:36:28.522Z,-3.72
2019-01-19T06:37:27.887Z,-3.73
2019-01-19T06:38:29.478Z,-3.73
2019-01-19T06:39:30.174Z,-3.73
2019-01-19T06:40:30.809Z,-3.74
2019-01-19T06:41:31.185Z,-3.73
2019-01-19T06:42:31.639Z,-3.73
2019-01-19T06:43:32.114Z,-3.74
2019-01-19T06:44:32.720Z,-3.74
2019-01-19T06:45:33.023Z,-3.74
2019-01-19T06:46:33.630Z,-3.74
2019-01-19T06:47:34.048Z,-3.75
2019-01-19T06:48:34.540Z,-3.75
2019-01-19T06:49:34.976Z,-3.76
2019-01-19T06:50:35.783Z,-3.76
2019-01-19T06:51:36.360Z,-3.76
2019-01-19T06:52:36.795Z,-3.77
2019-01-19T06:53:37.193Z,-3.77
2019-01-19T06:54:37.599Z,-3.77
2019-01-19T06:55:38.319Z,-3.77
2019-01-19T06:56:38.870Z,-3.77
2019-01-19T06:57:38.329Z,-3.78
2019-01-19T06:57:49.289Z,-3.79
2019-01-19T06:58:49.776Z,-3.79
2019-01-19T06:59:51.114Z,-3.79
2019-01-19T07:00:51.801Z,-3.79
2019-01-19T07:01:52.281Z,-3.78
2019-01-19T07:02:52.835Z,-3.78
2019-01-19T07:03:53.459Z,-3.78
2019-01-19T07:04:53.873Z,-3.78
2019-01-19T07:05:54.628Z,-3.79
2019-01-19T07:07:02.376Z,-3.79
2019-01-19T07:07:54.571Z,-3.79
2019-01-19T07:08:56.266Z,-3.79
2019-01-19T07:09:56.680Z,-3.80
2019-01-19T07:10:57.291Z,-3.80
2019-01-19T07:11:57.864Z,-3.80
2019-01-19T07:12:58.350Z,-3.81
2019-01-19T07:13:59.144Z,-3.82
2019-01-19T07:14:58.186Z,-3.83
2019-01-19T07:15:59.850Z,-3.84
2019-01-19T07:17:00.280Z,-3.85
2019-01-19T07:18:00.664Z,-3.85
2019-01-19T07:19:01.184Z,-3.86
2019-01-19T07:20:01.978Z,-3.87
2019-01-19T07:21:02.607Z,-3.89
2019-01-19T07:22:03.187Z,-3.90
2019-01-19T07:23:03.623Z,-3.91
2019-01-19T07:24:04.099Z,-3.92
2019-01-19T07:25:04.500Z,-3.93
2019-01-19T07:26:04.844Z,-3.93
2019-01-19T07:27:05.237Z,-3.94
2019-01-19T07:28:05.868Z,-3.94
2019-01-19T07:29:06.525Z,-3.94
2019-01-19T07:30:07.367Z,-3.95
2019-01-19T07:31:08.305Z,-3.95
2019-01-19T07:32:08.704Z,-3.95
2019-01-19T07:33:09.008Z,-3.94
2019-01-19T07:34:09.336Z,-3.94
2019-01-19T07:35:09.813Z,-3.94
2019-01-19T07:36:10.459Z,-3.94
2019-01-19T07:37:10.856Z,-3.94
2019-01-19T07:38:11.446Z,-3.93
2019-01-19T07:39:11.897Z,-3.93
2019-01-19T07:40:12.301Z,-3.93
2019-01-19T07:41:12.839Z,-3.93
2019-01-19T07:42:13.394Z,-3.92
2019-01-19T07:43:13.960Z,-3.92
2019-01-19T07:44:14.367Z,-3.91
2019-01-19T07:44:24.292Z,-3.82
2019-01-19T07:45:25.676Z,-3.82
2019-01-19T07:46:26.432Z,-3.82
2019-01-19T07:47:25.780Z,-3.82
2019-01-19T07:48:27.207Z,-3.81
2019-01-19T07:49:27.744Z,-3.81
2019-01-19T07:50:28.287Z,-3.80
2019-01-19T07:51:28.853Z,-3.80
2019-01-19T07:52:29.191Z,-3.80
2019-01-19T07:53:29.879Z,-3.79
2019-01-19T07:54:30.262Z,-3.79
2019-01-19T07:55:30.676Z,-3.79
2019-01-19T07:56:31.031Z,-3.79
2019-01-19T07:57:31.797Z,-3.80
2019-01-19T07:58:32.296Z,-3.80
2019-01-19T07:59:32.857Z,-3.81
2019-01-19T08:00:33.495Z,-3.81
2019-01-19T08:01:34.100Z,-3.81
2019-01-19T08:02:34.680Z,-3.82
2019-01-19T08:03:35.341Z,-3.82
2019-01-19T08:04:35.738Z,-3.82
2019-01-19T08:05:36.624Z,-3.82
2019-01-19T08:06:37.215Z,-3.81
2019-01-19T08:07:37.806Z,-3.81
2019-01-19T08:08:38.358Z,-3.80
2019-01-19T08:09:38.917Z,-3.80
2019-01-19T08:10:39.491Z,-3.79
2019-01-19T08:11:40.127Z,-3.79
2019-01-19T08:12:41.008Z,-3.78
2019-01-19T08:13:41.626Z,-3.78
2019-01-19T08:14:42.138Z,-3.77
2019-01-19T08:15:43.091Z,-3.77
2019-01-19T08:16:43.635Z,-3.77
2019-01-19T08:17:44.099Z,-3.76
2019-01-19T08:18:44.749Z,-3.76
2019-01-19T08:19:45.241Z,-3.75
2019-01-19T08:20:45.765Z,-3.74
2019-01-19T08:21:46.393Z,-3.74
2019-01-19T08:22:46.810Z,-3.73
2019-01-19T08:23:47.366Z,-3.72
2019-01-19T08:24:48.004Z,-3.72
2019-01-19T08:25:48.427Z,-3.71
2019-01-19T08:26:49.160Z,-3.70
2019-01-19T08:27:03.007Z,-3.54
2019-01-19T08:28:01.349Z,-3.54
2019-01-19T08:28:59.829Z,-3.54
2019-01-19T08:30:01.461Z,-3.54
2019-01-19T08:31:01.923Z,-3.53
2019-01-19T08:32:02.463Z,-3.54
2019-01-19T08:33:03.071Z,-3.54
2019-01-19T08:34:03.497Z,-3.54
2019-01-19T08:35:03.914Z,-3.53
2019-01-19T08:36:04.348Z,-3.53
2019-01-19T08:37:04.757Z,-3.53
2019-01-19T08:38:05.171Z,-3.52
2019-01-19T08:39:05.646Z,-3.51
2019-01-19T08:40:06.077Z,-3.51
2019-01-19T08:41:06.553Z,-3.50
2019-01-19T08:42:06.942Z,-3.49
2019-01-19T08:43:07.640Z,-3.48
2019-01-19T08:44:08.036Z,-3.48
2019-01-19T08:45:08.611Z,-3.47
2019-01-19T08:46:09.322Z,-3.47
2019-01-19T08:47:09.904Z,-3.47
2019-01-19T08:48:10.298Z,-3.47
2019-01-19T08:49:10.819Z,-3.46
2019-01-19T08:50:11.164Z,-3.46
2019-01-19T08:51:11.625Z,-3.46
2019-01-19T08:52:12.015Z,-3.45
2019-01-19T08:53:12.741Z,-3.45
2019-01-19T08:54:13.174Z,-3.45
2019-01-19T08:55:13.596Z,-3.45
2019-01-19T08:56:14.239Z,-3.45
2019-01-19T08:57:14.581Z,-3.45
2019-01-19T08:58:15.491Z,-3.45
2019-01-19T08:59:16.003Z,-3.45
2019-01-19T09:00:16.988Z,-3.45
2019-01-19T09:01:17.931Z,-3.45
2019-01-19T09:02:18.489Z,-3.44
2019-01-19T09:03:18.897Z,-3.44
2019-01-19T09:04:19.507Z,-3.45
2019-01-19T09:05:19.892Z,-3.45
2019-01-19T09:06:20.556Z,-3.45
2019-01-19T09:07:20.890Z,-3.45
2019-01-19T09:08:21.230Z,-3.44
2019-01-19T09:09:21.791Z,-3.44
2019-01-19T09:10:10.484Z,-3.38
2019-01-19T09:11:11.941Z,-3.38
2019-01-19T09:12:12.442Z,-3.38
2019-01-19T09:13:12.948Z,-3.37
2019-01-19T09:14:13.568Z,-3.37
2019-01-19T09:15:14.193Z,-3.36
2019-01-19T09:16:14.722Z,-3.35
2019-01-19T09:17:15.219Z,-3.34
2019-01-19T09:18:15.733Z,-3.32
2019-01-19T09:19:15.481Z,-3.30
2019-01-19T09:20:17.162Z,-3.29
2019-01-19T09:21:17.822Z,-3.28
2019-01-19T09:22:17.296Z,-3.27
2019-01-19T09:23:18.704Z,-3.26
2019-01-19T09:24:19.204Z,-3.25
2019-01-19T09:25:19.697Z,-3.25
2019-01-19T09:26:20.262Z,-3.24
2019-01-19T09:27:20.708Z,-3.23
2019-01-19T09:28:21.215Z,-3.23
2019-01-19T09:29:21.595Z,-3.23
2019-01-19T09:30:21.909Z,-3.22
2019-01-19T09:31:22.401Z,-3.22
2019-01-19T09:32:22.895Z,-3.22
2019-01-19T09:33:22.905Z,-3.22
2019-01-19T09:34:23.278Z,-3.22
2019-01-19T09:35:22.695Z,-3.22
2019-01-19T09:36:24.310Z,-3.21
2019-01-19T09:37:25.111Z,-3.21
2019-01-19T09:38:25.552Z,-3.20
2019-01-19T09:39:26.048Z,-3.20
2019-01-19T09:40:26.618Z,-3.20
2019-01-19T09:41:27.365Z,-3.19
2019-01-19T09:42:27.748Z,-3.18
2019-01-19T09:43:28.174Z,-3.17
2019-01-19T09:44:28.703Z,-3.17
2019-01-19T09:45:29.144Z,-3.16
2019-01-19T09:46:29.648Z,-3.14
2019-01-19T09:47:30.173Z,-3.13
2019-01-19T09:48:30.623Z,-3.11
2019-01-19T09:49:31.142Z,-3.09
2019-01-19T09:50:31.623Z,-3.07
2019-01-19T09:51:32.255Z,-3.04
2019-01-19T09:52:32.985Z,-3.02
2019-01-19T09:53:33.570Z,-2.99
2019-01-19T09:54:34.253Z,-2.97
2019-01-19T09:55:33.799Z,-2.94
2019-01-19T09:55:42.205Z,-2.49
2019-01-19T09:56:42.560Z,-2.49
2019-01-19T09:57:44.303Z,-2.49
2019-01-19T09:58:44.695Z,-2.49
2019-01-19T09:59:45.025Z,-2.48
2019-01-19T10:00:45.956Z,-2.48
2019-01-19T10:01:46.569Z,-2.48
2019-01-19T10:02:45.847Z,-2.47
2019-01-19T10:03:46.985Z,-2.47
2019-01-19T10:04:47.719Z,-2.47
2019-01-19T10:05:48.404Z,-2.46
2019-01-19T10:06:48.415Z,-2.45
2019-01-19T10:07:49.006Z,-2.45
2019-01-19T10:08:48.603Z,-2.44
2019-01-19T10:09:50.278Z,-2.43
2019-01-19T10:10:50.991Z,-2.42
2019-01-19T10:11:51.502Z,-2.42
2019-01-19T10:12:52.214Z,-2.42
2019-01-19T10:13:52.044Z,-2.42
2019-01-19T10:14:53.482Z,-2.41
2019-01-19T10:15:54.077Z,-2.41
2019-01-19T10:16:54.638Z,-2.41
2019-01-19T10:17:55.078Z,-2.41
2019-01-19T10:18:55.993Z,-2.41
2019-01-19T10:19:56.397Z,-2.41
2019-01-19T10:20:56.866Z,-2.41
2019-01-19T10:21:57.304Z,-2.41
2019-01-19T10:22:57.874Z,-2.40
2019-01-19T10:23:58.284Z,-2.40
2019-01-19T10:24:58.707Z,-2.39
2019-01-19T10:25:59.239Z,-2.39
2019-01-19T10:26:59.813Z,-2.39
2019-01-19T10:28:00.166Z,-2.38
2019-01-19T10:29:00.570Z,-2.37
2019-01-19T10:30:01.040Z,-2.37
2019-01-19T10:31:00.548Z,-2.36
2019-01-19T10:32:03.359Z,-2.36
2019-01-19T10:33:02.082Z,-2.35
2019-01-19T10:34:02.067Z,-2.35
2019-01-19T10:35:03.456Z,-2.35
2019-01-19T10:36:04.099Z,-2.35
2019-01-19T10:37:14.529Z,-2.35
2019-01-19T10:38:07.414Z,-2.35
2019-01-19T10:39:09.183Z,-2.36
2019-01-19T10:40:06.718Z,-2.36
2019-01-19T10:41:07.440Z,-2.36
2019-01-19T10:42:07.935Z,-2.36
2019-01-19T10:43:08.376Z,-2.37
2019-01-19T10:44:08.722Z,-2.37
2019-01-19T10:45:09.165Z,-2.37
2019-01-19T10:45:22.227Z,-2.42
2019-01-19T10:46:23.330Z,-2.42
2019-01-19T10:47:23.006Z,-2.42
2019-01-19T10:48:24.620Z,-2.42
2019-01-19T10:49:25.336Z,-2.42
2019-01-19T10:50:25.009Z,-2.42
2019-01-19T10:51:24.898Z,-2.42
2019-01-19T10:53:37.230Z,-2.39
2019-01-19T10:54:37.332Z,-2.40
2019-01-19T10:55:37.603Z,-2.40
2019-01-19T10:56:37.177Z,-2.40
2019-01-19T10:57:38.556Z,-2.40
2019-01-19T10:59:52.821Z,-2.36
2019-01-19T11:00:54.223Z,-2.36
2019-01-19T11:01:54.772Z,-2.36
2019-01-19T11:02:55.348Z,-2.36
2019-01-19T11:03:55.777Z,-2.36
2019-01-19T11:04:56.231Z,-2.36
2019-01-19T11:05:56.614Z,-2.35
2019-01-19T11:06:57.218Z,-2.35
2019-01-19T11:08:03.634Z,-2.35
2019-01-19T11:08:57.295Z,-2.34
2019-01-19T11:09:58.812Z,-2.33
2019-01-19T11:10:59.265Z,-2.33
2019-01-19T11:11:59.649Z,-2.31
2019-01-19T11:13:00.089Z,-2.30
2019-01-19T11:14:00.517Z,-2.29
2019-01-19T11:15:00.858Z,-2.28
2019-01-19T11:16:01.191Z,-2.27
2019-01-19T11:17:00.584Z,-2.26
2019-01-19T11:18:01.997Z,-2.24
2019-01-19T11:19:02.457Z,-2.23
2019-01-19T11:20:03.100Z,-2.22
2019-01-19T11:21:03.390Z,-2.21
2019-01-19T11:22:03.781Z,-2.20
2019-01-19T11:23:04.309Z,-2.19
2019-01-19T11:24:04.979Z,-2.18
2019-01-19T11:25:05.360Z,-2.17
2019-01-19T11:26:05.838Z,-2.15
2019-01-19T11:27:05.394Z,-2.14
2019-01-19T11:28:06.800Z,-2.13
2019-01-19T11:29:07.286Z,-2.11
2019-01-19T11:30:07.707Z,-2.10
2019-01-19T11:31:08.454Z,-2.08
2019-01-19T11:32:08.903Z,-2.07
2019-01-19T11:33:09.364Z,-2.06
2019-01-19T11:34:09.728Z,-2.05
2019-01-19T11:35:10.094Z,-2.04
2019-01-19T11:36:10.183Z,-2.03
2019-01-19T11:37:10.580Z,-2.02
2019-01-19T11:38:12.114Z,-2.01
2019-01-19T11:39:13.487Z,-1.99
2019-01-19T11:40:11.314Z,-1.98
2019-01-19T11:41:12.855Z,-1.97
2019-01-19T11:42:13.505Z,-1.95
2019-01-19T11:42:29.092Z,-1.69
2019-01-19T11:43:30.665Z,-1.69
2019-01-19T11:44:31.190Z,-1.69
2019-01-19T11:45:31.678Z,-1.69
2019-01-19T11:46:31.049Z,-1.68
2019-01-19T11:47:32.676Z,-1.68
2019-01-19T11:48:33.227Z,-1.67
2019-01-19T11:49:33.776Z,-1.66
2019-01-19T11:50:34.244Z,-1.65
2019-01-19T11:51:34.799Z,-1.64
2019-01-19T11:52:35.265Z,-1.62
2019-01-19T11:53:35.575Z,-1.60
2019-01-19T11:54:36.003Z,-1.59
2019-01-19T11:55:35.398Z,-1.57
2019-01-19T11:56:36.802Z,-1.55
2019-01-19T11:57:37.224Z,-1.52
2019-01-19T11:58:37.581Z,-1.50
2019-01-19T11:59:38.183Z,-1.48
2019-01-19T12:00:38.513Z,-1.46
2019-01-19T12:01:38.893Z,-1.44
2019-01-19T12:02:39.844Z,-1.42
2019-01-19T12:03:40.340Z,-1.40
2019-01-19T12:04:40.806Z,-1.37
2019-01-19T12:05:41.150Z,-1.35
2019-01-19T12:06:41.527Z,-1.31
2019-01-19T12:07:41.896Z,-1.28
2019-01-19T12:08:42.405Z,-1.24
2019-01-19T12:09:43.022Z,-1.20
2019-01-19T12:10:43.357Z,-1.15
2019-01-19T12:11:43.811Z,-1.11
2019-01-19T12:12:44.394Z,-1.06
2019-01-19T12:13:45.267Z,-1.02
2019-01-19T12:14:45.650Z,-0.98
2019-01-19T12:15:46.095Z,-0.94
2019-01-19T12:16:46.571Z,-0.90
2019-01-19T12:17:47.062Z,-0.86
2019-01-19T12:18:46.401Z,-0.82
2019-01-19T12:19:47.891Z,-0.79
2019-01-19T12:20:48.359Z,-0.75
2019-01-19T12:21:47.660Z,-0.71
2019-01-19T12:22:49.264Z,-0.68
2019-01-19T12:23:49.630Z,-0.65
2019-01-19T12:24:50.384Z,-0.62
2019-01-19T12:25:51.731Z,-0.59
2019-01-19T12:26:50.290Z,-0.57
2019-01-19T12:27:51.916Z,-0.54
2019-01-19T12:28:52.402Z,-0.52
2019-01-19T12:29:52.918Z,-0.50
2019-01-19T12:30:07.983Z,-0.12
2019-01-19T12:31:07.556Z,-0.12
2019-01-19T12:32:08.880Z,-0.12
2019-01-19T12:33:09.365Z,-0.12
2019-01-19T12:34:09.828Z,-0.13
2019-01-19T12:35:10.175Z,-0.13
2019-01-19T12:36:10.663Z,-0.13
2019-01-19T12:37:10.987Z,-0.13
2019-01-19T12:38:11.446Z,-0.12
2019-01-19T12:39:11.837Z,-0.12
2019-01-19T12:40:12.417Z,-0.12
2019-01-19T12:41:12.875Z,-0.12
2019-01-19T12:42:13.285Z,-0.12
2019-01-19T12:43:13.758Z,-0.11
2019-01-19T12:44:14.130Z,-0.11
2019-01-19T12:45:14.597Z,-0.11
2019-01-19T12:46:15.170Z,-0.10
2019-01-19T12:47:15.722Z,-0.09
2019-01-19T12:48:16.265Z,-0.08